createdAt,value
2023-01-21T00:01:23.336Z,98287.48
2023-01-21T00:04:26.957Z,98286.34
2023-01-21T00:07:02.125Z,98282.81
2023-01-21T00:09:38.759Z,98281.24
2023-01-21T00:13:24.008Z,98277.93
2023-01-21T00:19:02.980Z,98278.41
2023-01-21T00:21:36.750Z,98279.38
2023-01-21T00:24:11.661Z,98277.34
2023-01-21T00:26:45.455Z,98281.19
2023-01-21T00:32:16.923Z,98289.14
2023-01-21T00:34:52.740Z,98286.58
2023-01-21T00:37:33.475Z,98289.36
2023-01-21T00:40:53.293Z,98291.82
2023-01-21T00:43:31.003Z,98295.55
2023-01-21T00:46:36.048Z,98298.84
2023-01-21T00:49:10.460Z,98298.27
2023-01-21T00:51:43.858Z,98296.89
2023-01-21T00:54:21.089Z,98304.86
2023-01-21T00:57:18.761Z,98311.95
2023-01-21T01:00:18.630Z,98317.44
2023-01-21T01:02:52.674Z,98317.99
2023-01-21T01:05:30.815Z,98320.00
2023-01-21T01:08:06.079Z,98315.31
2023-01-21T01:11:07.671Z,98318.40
2023-01-21T01:13:40.630Z,98313.21
2023-01-21T01:17:00.878Z,98320.65
2023-01-21T01:20:22.511Z,98321.66
2023-01-21T01:23:45.139Z,98319.45
2023-01-21T01:26:19.727Z,98322.28
2023-01-21T01:29:17.957Z,98324.72
2023-01-21T01:31:53.979Z,98326.55
2023-01-21T01:38:14.071Z,98330.90
2023-01-21T01:40:47.990Z,98329.25
2023-01-21T01:44:09.568Z,98333.98
2023-01-21T01:46:46.973Z,98335.27
2023-01-21T01:49:50.301Z,98334.19
2023-01-21T01:52:28.836Z,98336.69
2023-01-21T01:55:04.772Z,98335.80
2023-01-21T01:57:45.356Z,98334.56
2023-01-21T02:01:11.139Z,98330.69
2023-01-21T02:03:54.449Z,98330.13
2023-01-21T02:09:51.630Z,98322.41
2023-01-21T02:12:56.763Z,98321.70
2023-01-21T02:15:40.122Z,98321.56
2023-01-21T02:18:40.056Z,98320.70
2023-01-21T02:22:04.267Z,98318.35
2023-01-21T02:25:25.808Z,98314.21
2023-01-21T02:28:21.546Z,98316.39
2023-01-21T02:31:23.565Z,98314.57
2023-01-21T02:34:24.123Z,98313.97
2023-01-21T02:37:29.242Z,98311.56
2023-01-21T02:46:44.035Z,98304.71
2023-01-21T02:49:25.003Z,98300.78
2023-01-21T02:52:00.712Z,98303.20
2023-01-21T02:54:54.994Z,98303.28
2023-01-21T03:01:45.752Z,98301.11
2023-01-21T03:04:56.473Z,98304.68
2023-01-21T03:08:19.029Z,98304.50
2023-01-21T03:11:41.048Z,98308.71
2023-01-21T03:14:42.294Z,98307.68
2023-01-21T03:20:49.222Z,98315.60
2023-01-21T03:26:35.682Z,98317.22
2023-01-21T03:29:37.727Z,98315.30
2023-01-21T03:32:16.933Z,98314.23
2023-01-21T03:34:53.548Z,98313.82
2023-01-21T03:38:01.243Z,98309.79
2023-01-21T03:43:56.701Z,98309.89
2023-01-21T03:46:57.332Z,98307.44
2023-01-21T03:50:27.294Z,98306.88
2023-01-21T03:53:05.528Z,98305.94
2023-01-21T03:56:04.456Z,98309.66
2023-01-21T03:58:47.209Z,98311.20
2023-01-21T04:02:35.263Z,98309.24
2023-01-21T04:05:10.084Z,98307.16
2023-01-21T04:07:48.654Z,98306.53
2023-01-21T04:10:24.707Z,98307.21
2023-01-21T04:12:58.517Z,98307.85
2023-01-21T04:15:34.634Z,98310.98
2023-01-21T04:18:34.992Z,98317.76
2023-01-21T04:21:15.787Z,98316.88
2023-01-21T04:23:53.035Z,98316.56
2023-01-21T04:26:26.813Z,98316.61
2023-01-21T04:29:01.955Z,98319.85
2023-01-21T04:31:37.999Z,98313.00
2023-01-21T04:34:41.946Z,98311.73
2023-01-21T04:37:17.163Z,98308.45
2023-01-21T04:39:53.095Z,98309.58
2023-01-21T04:42:26.915Z,98310.66
2023-01-21T04:45:06.527Z,98307.94
2023-01-21T04:47:39.918Z,98309.54
2023-01-21T04:50:38.210Z,98309.90
2023-01-21T05:00:00.232Z,98305.00
2023-01-21T05:03:23.722Z,98307.40
2023-01-21T05:06:45.409Z,98304.36
2023-01-21T05:12:21.741Z,98298.89
2023-01-21T05:15:05.436Z,98302.48
2023-01-21T05:25:23.143Z,98311.43
2023-01-21T05:28:22.147Z,98312.00
2023-01-21T05:30:56.739Z,98312.23
2023-01-21T05:34:20.273Z,98310.88
2023-01-21T05:36:54.231Z,98312.35
2023-01-21T05:39:29.943Z,98311.23
2023-01-21T05:49:17.421Z,98303.36
2023-01-21T05:51:50.003Z,98306.89
2023-01-21T05:54:26.247Z,98297.33
2023-01-21T05:57:02.624Z,98298.52
2023-01-21T06:00:07.018Z,98301.52
2023-01-21T06:02:43.552Z,98295.83
2023-01-21T06:06:06.251Z,98299.30
2023-01-21T06:08:42.937Z,98304.14
2023-01-21T06:11:18.699Z,98301.80
2023-01-21T06:14:18.267Z,98299.90
2023-01-21T06:17:20.373Z,98303.23
2023-01-21T06:19:52.730Z,98300.05
2023-01-21T06:22:26.356Z,98297.80
2023-01-21T06:25:03.832Z,98302.20
2023-01-21T06:28:50.958Z,98298.95
2023-01-21T06:32:16.141Z,98304.40
2023-01-21T06:34:51.486Z,98306.83
2023-01-21T06:37:25.951Z,98310.02
2023-01-21T06:40:01.826Z,98308.89
2023-01-21T06:46:00.516Z,98315.55
2023-01-21T06:48:59.100Z,98321.96
2023-01-21T06:51:34.201Z,98326.00
2023-01-21T06:54:09.529Z,98329.38
2023-01-21T06:56:49.550Z,98333.15
2023-01-21T06:59:49.747Z,98336.15
2023-01-21T07:02:28.448Z,98339.87
2023-01-21T07:05:03.510Z,98344.45
2023-01-21T07:07:36.856Z,98343.39
2023-01-21T07:10:34.456Z,98342.64
2023-01-21T07:13:10.958Z,98346.40
2023-01-21T07:19:29.246Z,98359.52
2023-01-21T07:22:25.376Z,98361.23
2023-01-21T07:25:02.898Z,98363.70
2023-01-21T07:27:36.350Z,98361.71
2023-01-21T07:30:12.113Z,98364.77
2023-01-21T07:32:51.302Z,98364.29
2023-01-21T07:35:25.926Z,98361.54
2023-01-21T07:38:03.716Z,98365.54
2023-01-21T07:41:26.060Z,98357.98
2023-01-21T07:44:25.892Z,98363.52
2023-01-21T07:49:58.416Z,98364.05
2023-01-21T07:52:34.245Z,98365.53
2023-01-21T07:55:12.607Z,98365.83
2023-01-21T07:57:47.804Z,98370.88
2023-01-21T08:06:27.519Z,98375.86
2023-01-21T08:09:01.393Z,98378.96
2023-01-21T08:12:02.310Z,98376.52
2023-01-21T08:14:38.629Z,98382.35
2023-01-21T08:17:14.335Z,98380.19
2023-01-21T08:19:49.468Z,98387.11
2023-01-21T08:22:26.570Z,98386.54
2023-01-21T08:25:03.272Z,98383.77
2023-01-21T08:27:35.990Z,98380.66
2023-01-21T08:30:14.074Z,98384.68
2023-01-21T08:32:50.368Z,98389.05
2023-01-21T08:36:16.327Z,98385.63
2023-01-21T08:38:48.917Z,98393.04
2023-01-21T08:41:22.490Z,98392.65
2023-01-21T08:43:58.296Z,98398.36
2023-01-21T08:46:57.177Z,98398.96
2023-01-21T08:49:56.820Z,98393.14
2023-01-21T08:52:32.407Z,98392.57
2023-01-21T08:55:05.067Z,98399.27
2023-01-21T08:57:44.062Z,98398.02
2023-01-21T09:00:43.535Z,98398.64
2023-01-21T09:03:20.808Z,98400.05
2023-01-21T09:06:18.947Z,98396.09
2023-01-21T09:08:54.056Z,98399.27
2023-01-21T09:11:56.107Z,98402.41
2023-01-21T09:14:33.059Z,98404.70
2023-01-21T09:17:08.392Z,98406.09
2023-01-21T09:19:43.310Z,98408.21
2023-01-21T09:22:40.132Z,98409.80
2023-01-21T09:26:25.639Z,98410.42
2023-01-21T09:29:02.544Z,98412.56
2023-01-21T09:32:24.062Z,98416.67
2023-01-21T09:34:57.734Z,98420.77
2023-01-21T09:37:55.542Z,98425.96
2023-01-21T09:40:56.608Z,98425.84
2023-01-21T09:43:57.470Z,98430.48
2023-01-21T09:46:40.342Z,98427.02
2023-01-21T09:50:00.775Z,98427.89
2023-01-21T09:59:04.425Z,98435.27
2023-01-21T10:01:45.081Z,98433.16
2023-01-21T10:04:35.259Z,98433.67
2023-01-21T10:07:15.665Z,98436.87
2023-01-21T10:13:45.209Z,98431.30
2023-01-21T10:16:47.197Z,98438.17
2023-01-21T10:19:28.985Z,98435.17
2023-01-21T10:22:08.003Z,98429.95
2023-01-21T10:25:05.200Z,98426.13
2023-01-21T10:27:39.368Z,98424.00
2023-01-21T10:30:29.882Z,98424.61
2023-01-21T10:33:56.792Z,98427.52
2023-01-21T10:37:05.094Z,98430.87
2023-01-21T10:39:52.978Z,98432.36
2023-01-21T10:43:18.554Z,98432.84
2023-01-21T10:46:21.248Z,98434.29
2023-01-21T10:49:32.171Z,98434.41
2023-01-21T10:52:33.720Z,98432.74
2023-01-21T10:55:37.368Z,98432.85
2023-01-21T11:01:28.325Z,98437.96
2023-01-21T11:04:53.000Z,98432.37
2023-01-21T11:07:50.765Z,98428.89
2023-01-21T11:10:26.399Z,98425.08
2023-01-21T11:13:47.188Z,98428.15
2023-01-21T11:16:43.579Z,98426.36
2023-01-21T11:19:29.351Z,98428.52
2023-01-21T11:26:39.967Z,98424.61
2023-01-21T11:30:10.106Z,98426.35
2023-01-21T11:32:48.637Z,98418.26
2023-01-21T11:42:03.263Z,98415.80
2023-01-21T11:45:18.722Z,98419.14
2023-01-21T11:48:00.601Z,98428.55
2023-01-21T11:51:20.684Z,98426.73
2023-01-21T11:54:15.795Z,98431.97
2023-01-21T11:57:22.129Z,98432.17
2023-01-21T12:00:03.140Z,98429.77
2023-01-21T12:02:40.611Z,98431.18
2023-01-21T12:05:21.173Z,98429.58
2023-01-21T12:08:43.110Z,98432.13
2023-01-21T12:14:59.447Z,98429.64
2023-01-21T12:18:22.070Z,98431.35
2023-01-21T12:30:46.113Z,98437.98
2023-01-21T12:33:36.270Z,98438.30
2023-01-21T12:36:40.738Z,98435.45
2023-01-21T12:39:24.231Z,98441.69
2023-01-21T12:42:16.569Z,98439.24
2023-01-21T12:45:16.427Z,98440.68
2023-01-21T12:48:01.499Z,98441.53
2023-01-21T12:51:03.324Z,98445.77
2023-01-21T12:54:10.961Z,98444.64
2023-01-21T12:56:52.042Z,98447.98
2023-01-21T13:03:00.729Z,98461.55
2023-01-21T13:05:37.528Z,98466.86
2023-01-21T13:09:22.787Z,98472.29
2023-01-21T13:12:25.851Z,98480.12
2023-01-21T13:15:24.114Z,98492.57
2023-01-21T13:21:58.703Z,98495.75
2023-01-21T13:25:01.336Z,98502.45
2023-01-21T13:31:08.952Z,98513.34
2023-01-21T13:34:10.630Z,98525.52
2023-01-21T13:39:55.321Z,98532.65
2023-01-21T13:46:35.172Z,98549.06
2023-01-21T13:50:06.160Z,98555.27
2023-01-21T13:53:14.766Z,98560.95
2023-01-21T13:56:24.438Z,98563.55
2023-01-21T13:59:00.427Z,98558.33
2023-01-21T14:02:20.910Z,98559.59
2023-01-21T14:05:02.921Z,98561.75
2023-01-21T14:07:43.740Z,98561.89
2023-01-21T14:10:22.867Z,98563.53
2023-01-21T14:13:46.330Z,98567.23
2023-01-21T14:16:49.922Z,98568.21
2023-01-21T14:19:36.915Z,98568.17
2023-01-21T14:22:18.932Z,98570.42
2023-01-21T14:26:06.675Z,98571.23
2023-01-21T14:29:09.861Z,98574.36
2023-01-21T14:31:47.965Z,98577.66
2023-01-21T14:34:23.361Z,98575.84
2023-01-21T14:40:13.160Z,98586.90
2023-01-21T14:42:47.500Z,98588.42
2023-01-21T14:46:06.590Z,98589.70
2023-01-21T14:48:45.258Z,98594.31
2023-01-21T14:51:28.392Z,98599.77
2023-01-21T14:54:05.715Z,98600.98
2023-01-21T15:00:24.146Z,98614.18
2023-01-21T15:04:12.101Z,98619.92
2023-01-21T15:06:47.837Z,98623.45
2023-01-21T15:13:28.702Z,98635.77
2023-01-21T15:22:53.378Z,98649.65
2023-01-21T15:29:37.282Z,98662.50
2023-01-21T15:32:35.025Z,98668.05
2023-01-21T15:35:45.994Z,98669.39
2023-01-21T15:38:44.628Z,98677.32
2023-01-21T15:41:41.006Z,98686.33
2023-01-21T15:44:24.143Z,98689.09
2023-01-21T15:47:00.825Z,98697.06
2023-01-21T15:49:41.897Z,98704.14
2023-01-21T15:52:28.828Z,98708.31
2023-01-21T15:55:27.503Z,98714.35
2023-01-21T15:58:32.712Z,98718.52
2023-01-21T16:01:37.725Z,98724.10
2023-01-21T16:04:56.295Z,98732.98
2023-01-21T16:07:39.226Z,98733.00
2023-01-21T16:10:22.530Z,98735.14
2023-01-21T16:13:04.170Z,98737.40
2023-01-21T16:16:06.863Z,98741.80
2023-01-21T16:18:47.061Z,98744.88
2023-01-21T16:24:26.864Z,98752.48
2023-01-21T16:27:00.347Z,98756.60
2023-01-21T16:32:41.192Z,98757.23
2023-01-21T16:36:00.918Z,98757.99
2023-01-21T16:38:34.641Z,98766.01
2023-01-21T16:44:26.880Z,98766.63
2023-01-21T16:47:51.058Z,98771.16
2023-01-21T16:50:50.309Z,98771.50
2023-01-21T16:53:25.846Z,98773.11
2023-01-21T16:56:04.452Z,98775.77
2023-01-21T16:58:38.473Z,98777.90
2023-01-21T17:04:14.811Z,98777.02
2023-01-21T17:06:50.019Z,98776.60
2023-01-21T17:10:12.230Z,98779.35
2023-01-21T17:13:16.903Z,98781.17
2023-01-21T17:16:00.058Z,98786.49
2023-01-21T17:18:37.234Z,98791.07
2023-01-21T17:21:16.541Z,98794.33
2023-01-21T17:23:53.802Z,98799.70
2023-01-21T17:26:37.151Z,98799.45
2023-01-21T17:29:21.309Z,98810.40
2023-01-21T17:32:27.860Z,98820.72
2023-01-21T17:35:23.151Z,98824.36
2023-01-21T17:38:00.107Z,98827.20
2023-01-21T17:41:03.215Z,98829.89
2023-01-21T17:43:41.475Z,98834.76
2023-01-21T17:47:26.344Z,98842.46
2023-01-21T17:50:04.895Z,98853.85
2023-01-21T17:52:37.759Z,98854.37
2023-01-21T17:55:59.910Z,98858.06
2023-01-21T17:59:15.211Z,98863.67
2023-01-21T18:01:56.445Z,98875.27
2023-01-21T18:05:21.457Z,98880.30
2023-01-21T18:08:43.704Z,98884.88
2023-01-21T18:11:22.412Z,98892.87
2023-01-21T18:13:56.797Z,98897.16
2023-01-21T18:16:34.264Z,98897.48
2023-01-21T18:26:19.098Z,98911.55
2023-01-21T18:28:58.964Z,98915.19
2023-01-21T18:31:33.902Z,98918.52
2023-01-21T18:34:09.110Z,98932.15
2023-01-21T18:37:29.836Z,98932.11
2023-01-21T18:40:06.504Z,98940.05
2023-01-21T18:42:44.020Z,98941.56
2023-01-21T18:45:47.797Z,98942.67
2023-01-21T18:48:22.346Z,98940.32
2023-01-21T18:51:44.940Z,98939.10
2023-01-21T18:54:25.244Z,98942.27
2023-01-21T18:57:28.262Z,98943.16
2023-01-21T19:00:06.331Z,98942.32
2023-01-21T19:02:42.231Z,98942.00
2023-01-21T19:05:16.698Z,98946.70
2023-01-21T19:07:56.595Z,98956.33
2023-01-21T19:10:37.039Z,98956.88
2023-01-21T19:13:11.305Z,98958.96
2023-01-21T19:15:48.754Z,98953.52
2023-01-21T19:18:24.856Z,98955.45
2023-01-21T19:23:58.784Z,98968.11
2023-01-21T19:26:38.272Z,98965.90
2023-01-21T19:29:24.428Z,98968.94
2023-01-21T19:32:27.459Z,98977.92
2023-01-21T19:35:04.121Z,98983.36
2023-01-21T19:37:47.848Z,98982.26
2023-01-21T19:43:49.781Z,98985.42
2023-01-21T19:49:52.938Z,99009.63
2023-01-21T19:52:58.157Z,99007.94
2023-01-21T19:59:00.050Z,99007.74
2023-01-21T20:01:41.470Z,99007.70
2023-01-21T20:04:19.531Z,99002.87
2023-01-21T20:06:54.183Z,99001.96
2023-01-21T20:09:28.762Z,99005.60
2023-01-21T20:12:05.630Z,99004.50
2023-01-21T20:15:09.074Z,99011.73
2023-01-21T20:17:44.819Z,99022.67
2023-01-21T20:20:57.054Z,99029.98
2023-01-21T20:23:53.459Z,99025.34
2023-01-21T20:26:34.753Z,99039.07
2023-01-21T20:29:32.995Z,99041.98
2023-01-21T20:32:29.678Z,99046.70
2023-01-21T20:38:13.594Z,99048.84
2023-01-21T20:40:48.566Z,99047.02
2023-01-21T20:43:27.246Z,99051.83
2023-01-21T20:46:32.773Z,99058.85
2023-01-21T20:49:07.835Z,99063.34
2023-01-21T20:51:46.081Z,99064.52
2023-01-21T20:54:19.996Z,99079.90
2023-01-21T20:57:40.373Z,99086.29
2023-01-21T21:03:20.106Z,99091.65
2023-01-21T21:05:53.902Z,99084.13
2023-01-21T21:08:27.972Z,99081.04
2023-01-21T21:11:03.419Z,99091.84
2023-01-21T21:13:38.531Z,99104.76
2023-01-21T21:16:20.479Z,99110.33
2023-01-21T21:18:56.570Z,99103.64
2023-01-21T21:21:33.538Z,99099.81
2023-01-21T21:24:09.634Z,99099.87
2023-01-21T21:26:45.907Z,99109.59
2023-01-21T21:29:20.683Z,99108.03
2023-01-21T21:31:53.701Z,99102.35
2023-01-21T21:34:29.673Z,99109.62
2023-01-21T21:37:03.984Z,99120.77
2023-01-21T21:40:01.854Z,99121.64
2023-01-21T21:43:00.836Z,99122.23
2023-01-21T21:45:34.389Z,99126.94
2023-01-21T21:48:30.477Z,99130.63
2023-01-21T21:51:07.213Z,99128.42
2023-01-21T21:54:26.922Z,99128.27
2023-01-21T21:57:00.329Z,99119.88
2023-01-21T21:59:37.478Z,99121.80
2023-01-21T22:02:17.675Z,99120.38
2023-01-21T22:04:55.024Z,99116.41
2023-01-21T22:07:58.675Z,99116.23
2023-01-21T22:10:31.842Z,99116.92
2023-01-21T22:13:06.221Z,99121.99
2023-01-21T22:15:42.721Z,99129.66
2023-01-21T22:18:16.670Z,99128.27
2023-01-21T22:21:14.274Z,99126.83
2023-01-21T22:23:51.225Z,99133.42
2023-01-21T22:26:47.936Z,99130.72
2023-01-21T22:29:23.999Z,99132.66
2023-01-21T22:31:59.762Z,99135.09
2023-01-21T22:34:35.529Z,99139.45
2023-01-21T22:37:15.446Z,99138.85
2023-01-21T22:39:50.733Z,99140.64
2023-01-21T22:42:25.603Z,99137.38
2023-01-21T22:45:01.166Z,99143.67
2023-01-21T22:47:39.309Z,99148.66
2023-01-21T22:50:13.531Z,99143.88
2023-01-21T22:53:16.466Z,99141.90
2023-01-21T22:59:18.203Z,99152.87
2023-01-21T23:01:51.555Z,99149.95
2023-01-21T23:04:23.538Z,99143.54
2023-01-21T23:07:20.957Z,99153.36
2023-01-21T23:09:56.074Z,99157.84
2023-01-21T23:12:32.879Z,99156.41
2023-01-21T23:15:05.784Z,99162.09
2023-01-21T23:18:26.430Z,99165.89
2023-01-21T23:21:02.781Z,99171.08
2023-01-21T23:23:43.729Z,99169.17
2023-01-21T23:26:24.123Z,99168.55
2023-01-21T23:29:01.794Z,99167.95
2023-01-21T23:32:23.562Z,99164.64
2023-01-21T23:34:59.308Z,99169.90
2023-01-21T23:37:36.045Z,99163.96
2023-01-21T23:47:47.822Z,99166.08
2023-01-21T23:50:24.811Z,99177.46
2023-01-21T23:53:21.472Z,99184.62
2023-01-21T23:56:50.563Z,99187.55
2023-01-21T23:59:48.584Z,99190.34
